Airport ID:KSMD
Update Time (UTC):07/05/2021 22:53
Wind Speed (Knots):12
Wind Direction (Magnetic):320
Temperature (°C):11.3
Dew Point (°C):0.8
Humidity (%):48.1
Altimeter (inHg):29.94
Density Altitude (Feet):
Visibility (Miles):10
Clouds (Hundreds of feet):FEW050 SCT060
Present Weather:
METAR:METAR KSMD 072250Z AUTO 32012G21KT 10SM FEW050 SCT060 11/01 A2994 RMK A01

The data displayed is for advisory purposes only and is not to be used for flight planning or operations.